Details for Norwegian Air Shuttle at ENGM




Go Back


Latest METAR
Local Time

ENGM 211420Z 16003KT 110V190 9999 BKN010 M04/M06 Q1025 TEMPO BKN009

21/02/2018, 16:01:08

Description
Results
Norwegian Air Shuttle Logo
Number of Pilots based at ENGM
0 Pilots Based here
Number of Norwegian Air Shuttle Flights Departed from ENGM
4 Flights Departed
Number of Norwegian Air Shuttle Flights Arrived at ENGM
6 Flights Arrived
Number of Norwegian Air Shuttle Schedules Departing from ENGM
221 Schedules
Number of Norwegian Air Shuttle Schedules Arriving at ENGM
222 Schedules
Number of Norwegian Air Shuttle Schedules Departing from ENGM availible today
103 Schedules Today
Number of Norwegian Air Shuttle Schedules Arriving at ENGM availible today
103 Schedules Today
Average Landing Rate at ENGM
-199 fpm
Norwegian Air Shuttle Average Landing Rate at ENGM
-95 fpm
Total Fuel Purchased at ENGM by Norwegian Air Shuttle
14,647.40 kgs / 32,291.66 lbs

Pilots Based at ENGM


Pilot ID
Pilot Name
Pilot Rank
No. of Flights
No. of Flying Hours
There are no pilots assigned to this hub!   Will you be the first?
Content